• Join FlightAware (Why Join?)
  • Login
  • US Flag 
12:44PM EDT


 

Airport Tracker/Info


-or-


 

Live Flight TrackerFlight Track Log ✈ UCA596 ✈ 01-Nov-2013 ✈ KIAD - KBGM

Flight Track Log - Related Links

Times and Time Zones

All times are in EDT time to prevent confusion due to time zone crossing. See the UCA596 flight status page for this flight to view local times or setup timezone preferences in your user account.

Time Position Orientation Groundspeed Altitude Reporting Facility
EDT Latitude Longitude Course Direction KTS MPH feet Rate Location/Type
01:10PM 38.9500 -77.5000 322° Northwest 129 148 1,600  Level Potomac TRACON
01:11PM 38.9833 -77.5333 322° Northwest 166 191 2,700 1,200 Climbing Potomac TRACON
01:12PM 39.0167 -77.5833 311° West 184 212 4,100 1,320 Climbing Potomac TRACON
01:14PM 39.0667 -77.6333 322° Northwest 190 219 5,500 1,500 Climbing Potomac TRACON
01:14PM 39.1000 -77.6500 339° North 208 239 7,200 1,680 Climbing Potomac TRACON
01:15PM 39.1667 -77.6500 360° North 221 254 8,700 1,500 Climbing Potomac TRACON
01:16PM 39.2333 -77.6333 11° North 234 269 10,200 1,380 Climbing Potomac TRACON
01:17PM 39.2833 -77.6333 360° North 251 289 11,400 720 Climbing Potomac TRACON
01:19PM 39.3842 -77.6161 North 259 298 11,900 180 Climbing Washington Center
01:20PM 39.4658 -77.5917 13° North 272 313 11,900 480 Level Washington Center
01:21PM 39.5417 -77.5317 31° Northeast 298 343 12,900 540 Climbing Washington Center
01:22PM 39.6178 -77.4772 29° Northeast 298 343 13,100 900 Climbing Washington Center
01:23PM 39.7094 -77.4531 11° North 291 335 15,000 1,320 Climbing New York Center
01:24PM 39.7867 -77.4522 360° North 263 303 16,100 1,020 Climbing New York Center
01:25PM 39.8472 -77.4500 North 252 290 17,100 1,200 Climbing New York Center
01:26PM 39.9244 -77.4492 360° North 252 290 18,600 900 Climbing New York Center
01:27PM 39.9919 -77.4339 10° North 258 297 19,000 180 Climbing New York Center
01:28PM 40.0828 -77.3775 25° Northeast 304 350 19,000  Level New York Center
01:29PM 40.1603 -77.3358 22° Northeast 330 380 19,000  Level New York Center
01:30PM 40.2572 -77.2797 24° Northeast 335 386 19,000  Level New York Center
01:31PM 40.3369 -77.2328 24° Northeast 340 391 19,000  Level New York Center
01:32PM 40.4336 -77.1764 24° Northeast 345 397 19,000  Level New York Center
01:33PM 40.5200 -77.1244 25° Northeast 345 397 19,000 -120 Level New York Center
01:34PM 40.6103 -77.0725 24° Northeast 345 397 18,800 -360 Descending New York Center
01:35PM 40.6919 -77.0253 24° Northeast 345 397 18,300 -840 Descending New York Center
01:36PM 40.7908 -76.9658 24° Northeast 345 397 17,200 -720 Descending New York Center
01:37PM 40.8769 -76.9158 24° Northeast 345 397 16,900 -180 Descending New York Center
01:38PM 40.9500 -76.8703 25° Northeast 333 383 16,900  Level New York Center
01:39PM 41.0317 -76.8225 24° Northeast 322 371 16,900  Level New York Center
01:40PM 41.1156 -76.7722 24° Northeast 322 371 16,900  Level New York Center
01:41PM 41.1992 -76.7244 23° Northeast 327 376 16,900  Level New York Center
01:42PM 41.2811 -76.6708 26° Northeast 327 376 16,900 -540 Level New York Center
01:43PM 41.3669 -76.6203 24° Northeast 327 376 15,900 -1,200 Descending New York Center
01:44PM 41.4636 -76.5625 24° Northeast 333 383 14,500 -1,200 Descending New York Center
01:45PM 41.5472 -76.5114 25° Northeast 333 383 13,500 -1,020 Descending New York Center
01:46PM 41.6289 -76.4600 25° Northeast 327 376 12,500 -960 Descending New York Center
01:47PM 41.7017 -76.4164 24° Northeast 327 376 11,600 -1,080 Descending New York Center
01:48PM 41.7850 -76.3706 22° Northeast 327 376 10,400 -1,320 Descending New York Center
01:49PM 41.8594 -76.2933 38° Northeast 314 361 9,000 -1,260 Descending New York Center
01:50PM 41.9192 -76.2175 43° Northeast 294 338 7,900 -1,200 Descending New York Center
01:51PM 41.9728 -76.1408 47° Northeast 284 327 6,700 -1,200 Descending New York Center
01:52PM 42.0211 -76.0806 43° Northeast 279 321 5,600 -1,200 Descending New York Center
01:53PM 42.0828 -76.0072 41° Northeast 268 308 4,400 -1,080 Descending New York Center
01:54PM 42.1375 -75.9472 39° Northeast 256 295 3,500 -780 Descending New York Center
01:55PM 42.1803 -75.9200 25° Northeast 189 217 2,900 -720 Descending New York Center
01:56PM 42.2064 -75.9389 332° Northwest 135 155 2,100 -420 Descending New York Center
01:57PM 42.2442 -75.9306 North 135 155 2,100 3,420 Level New York Center
01:58PM 42.2797 -75.9278 North 135 155 9,000 3,420 Climbing New York Center
01:59PM 42.3175 -75.9222 North 135 155 9,000  Level New York Center
02:00PM 42.3531 -75.9194 North 135 155 9,000  Level New York Center
02:02PM 42.2478 -75.9519 193° South  Level FlightAware Approximate